sensor_id;sensor_type;location;lat;lon;timestamp;pressure;altitude;pressure_sealevel;temperature;humidity
32197;BME280;18697;42.770;23.400;2024-03-23T00:52:46;95644.59;;;8.36;52.76
32197;BME280;18697;42.770;23.400;2024-03-23T00:55:12;95645.13;;;8.31;52.89
32197;BME280;18697;42.770;23.400;2024-03-23T00:57:37;95637.59;;;8.09;52.77
32197;BME280;18697;42.770;23.400;2024-03-23T01:00:03;95632.22;;;7.93;53.68
32197;BME280;18697;42.770;23.400;2024-03-23T01:02:30;95633.44;;;7.92;54.33
32197;BME280;18697;42.770;23.400;2024-03-23T01:04:56;95632.66;;;7.91;54.45
32197;BME280;18697;42.770;23.400;2024-03-23T01:07:21;95632.44;;;7.99;54.01
32197;BME280;18697;42.770;23.400;2024-03-23T01:09:46;95632.25;;;7.80;53.69
32197;BME280;18697;42.770;23.400;2024-03-23T01:12:12;95630.94;;;7.72;54.36
32197;BME280;18697;42.770;23.400;2024-03-23T01:14:37;95631.91;;;7.78;54.56
32197;BME280;18697;42.770;23.400;2024-03-23T01:17:03;95625.28;;;7.76;54.53
32197;BME280;18697;42.770;23.400;2024-03-23T01:19:28;95632.72;;;7.66;54.29
32197;BME280;18697;42.770;23.400;2024-03-23T01:21:53;95635.81;;;7.55;53.94
32197;BME280;18697;42.770;23.400;2024-03-23T01:24:19;95638.13;;;7.57;53.96
32197;BME280;18697;42.770;23.400;2024-03-23T01:26:44;95635.50;;;7.53;53.33
32197;BME280;18697;42.770;23.400;2024-03-23T01:29:09;95638.16;;;7.44;53.45
32197;BME280;18697;42.770;23.400;2024-03-23T01:31:35;95638.16;;;7.44;53.41
32197;BME280;18697;42.770;23.400;2024-03-23T01:34:00;95642.13;;;7.43;53.72
32197;BME280;18697;42.770;23.400;2024-03-23T01:36:26;95625.47;;;7.34;53.51
32197;BME280;18697;42.770;23.400;2024-03-23T01:38:51;95617.41;;;7.14;53.66
32197;BME280;18697;42.770;23.400;2024-03-23T01:41:17;95621.78;;;6.86;54.09
32197;BME280;18697;42.770;23.400;2024-03-23T01:43:43;95625.44;;;6.83;54.89
32197;BME280;18697;42.770;23.400;2024-03-23T01:46:08;95631.63;;;6.87;55.24
32197;BME280;18697;42.770;23.400;2024-03-23T01:48:33;95632.28;;;6.91;55.55
32197;BME280;18697;42.770;23.400;2024-03-23T01:50:59;95627.09;;;6.93;55.35
32197;BME280;18697;42.770;23.400;2024-03-23T01:53:25;95635.19;;;7.01;56.07
32197;BME280;18697;42.770;23.400;2024-03-23T01:55:50;95633.97;;;7.02;55.46
32197;BME280;18697;42.770;23.400;2024-03-23T01:58:16;95636.28;;;7.03;55.67
32197;BME280;18697;42.770;23.400;2024-03-23T02:00:41;95637.25;;;6.84;55.20
32197;BME280;18697;42.770;23.400;2024-03-23T02:03:26;95631.41;;;6.95;55.77
32197;BME280;18697;42.770;23.400;2024-03-23T02:05:53;95636.84;;;6.98;56.05
32197;BME280;18697;42.770;23.400;2024-03-23T02:08:21;95632.84;;;6.99;56.13
32197;BME280;18697;42.770;23.400;2024-03-23T02:10:48;95643.78;;;7.03;55.59
32197;BME280;18697;42.770;23.400;2024-03-23T02:13:14;95638.16;;;6.93;55.12
32197;BME280;18697;42.770;23.400;2024-03-23T02:15:40;95635.81;;;6.79;55.37
32197;BME280;18697;42.770;23.400;2024-03-23T02:18:09;95631.06;;;6.80;55.98
32197;BME280;18697;42.770;23.400;2024-03-23T02:20:35;95636.47;;;6.83;55.91
32197;BME280;18697;42.770;23.400;2024-03-23T02:23:01;95633.34;;;6.69;56.42
32197;BME280;18697;42.770;23.400;2024-03-23T02:25:26;95633.88;;;6.51;56.72
32197;BME280;18697;42.770;23.400;2024-03-23T02:27:52;95639.94;;;6.46;57.15
32197;BME280;18697;42.770;23.400;2024-03-23T02:30:19;95639.38;;;6.38;57.22
32197;BME280;18697;42.770;23.400;2024-03-23T02:32:45;95644.00;;;6.41;57.00
32197;BME280;18697;42.770;23.400;2024-03-23T02:35:10;95637.41;;;6.51;56.79
32197;BME280;18697;42.770;23.400;2024-03-23T02:37:35;95633.69;;;6.58;56.77
32197;BME280;18697;42.770;23.400;2024-03-23T02:40:01;95640.66;;;6.63;55.55
32197;BME280;18697;42.770;23.400;2024-03-23T02:42:27;95629.63;;;6.34;56.07
32197;BME280;18697;42.770;23.400;2024-03-23T02:44:53;95650.06;;;5.75;58.50
32197;BME280;18697;42.770;23.400;2024-03-23T02:47:18;95642.03;;;5.97;59.14
32197;BME280;18697;42.770;23.400;2024-03-23T02:49:44;95648.25;;;5.84;60.48
32197;BME280;18697;42.770;23.400;2024-03-23T02:52:09;95649.38;;;5.87;60.80
32197;BME280;18697;42.770;23.400;2024-03-23T02:54:34;95646.47;;;5.94;60.84
32197;BME280;18697;42.770;23.400;2024-03-23T02:57:00;95637.91;;;6.05;60.43
32197;BME280;18697;42.770;23.400;2024-03-23T02:59:25;95650.38;;;6.09;60.53
32197;BME280;18697;42.770;23.400;2024-03-23T03:01:50;95640.03;;;6.13;60.21
32197;BME280;18697;42.770;23.400;2024-03-23T03:04:16;95636.84;;;6.15;61.17
32197;BME280;18697;42.770;23.400;2024-03-23T03:06:41;95644.97;;;6.06;60.70
32197;BME280;18697;42.770;23.400;2024-03-23T03:09:06;95644.34;;;6.14;60.75
32197;BME280;18697;42.770;23.400;2024-03-23T03:11:32;95634.31;;;6.20;59.78
32197;BME280;18697;42.770;23.400;2024-03-23T03:13:57;95641.06;;;6.19;59.55
32197;BME280;18697;42.770;23.400;2024-03-23T03:16:25;95644.50;;;6.23;59.59
32197;BME280;18697;42.770;23.400;2024-03-23T03:18:50;95642.53;;;6.08;59.11
32197;BME280;18697;42.770;23.400;2024-03-23T03:21:17;95640.22;;;6.06;59.73
32197;BME280;18697;42.770;23.400;2024-03-23T03:23:44;95647.38;;;6.04;60.00
32197;BME280;18697;42.770;23.400;2024-03-23T03:26:09;95655.47;;;6.11;59.82
32197;BME280;18697;42.770;23.400;2024-03-23T03:28:35;95643.47;;;6.17;59.78
32197;BME280;18697;42.770;23.400;2024-03-23T03:31:00;95643.66;;;6.10;59.59
32197;BME280;18697;42.770;23.400;2024-03-23T03:33:29;95642.72;;;6.01;60.03
32197;BME280;18697;42.770;23.400;2024-03-23T03:35:55;95645.72;;;6.06;59.77
32197;BME280;18697;42.770;23.400;2024-03-23T03:38:20;95639.50;;;6.18;59.46
32197;BME280;18697;42.770;23.400;2024-03-23T03:40:46;95639.16;;;6.16;59.61
32197;BME280;18697;42.770;23.400;2024-03-23T03:43:12;95647.09;;;6.14;58.74
32197;BME280;18697;42.770;23.400;2024-03-23T03:45:37;95641.78;;;6.07;58.96
32197;BME280;18697;42.770;23.400;2024-03-23T03:48:03;95651.06;;;6.13;59.21
32197;BME280;18697;42.770;23.400;2024-03-23T03:50:28;95655.13;;;6.09;59.61
32197;BME280;18697;42.770;23.400;2024-03-23T03:52:54;95647.47;;;6.00;59.69
32197;BME280;18697;42.770;23.400;2024-03-23T03:55:19;95643.59;;;5.98;59.38
32197;BME280;18697;42.770;23.400;2024-03-23T03:57:44;95646.47;;;5.94;59.41
32197;BME280;18697;42.770;23.400;2024-03-23T04:00:10;95641.47;;;5.89;59.68
32197;BME280;18697;42.770;23.400;2024-03-23T04:02:37;95652.84;;;5.91;59.28
32197;BME280;18697;42.770;23.400;2024-03-23T04:05:03;95651.09;;;5.81;59.89
32197;BME280;18697;42.770;23.400;2024-03-23T04:07:28;95652.50;;;5.89;59.79
32197;BME280;18697;42.770;23.400;2024-03-23T04:09:54;95652.56;;;5.85;59.38
32197;BME280;18697;42.770;23.400;2024-03-23T04:12:19;95659.47;;;5.93;59.50
32197;BME280;18697;42.770;23.400;2024-03-23T04:14:45;95653.50;;;5.95;59.75
32197;BME280;18697;42.770;23.400;2024-03-23T04:17:10;95648.25;;;6.01;59.24
32197;BME280;18697;42.770;23.400;2024-03-23T04:19:36;95658.31;;;6.07;59.22
32197;BME280;18697;42.770;23.400;2024-03-23T04:22:01;95656.31;;;6.08;58.14
32197;BME280;18697;42.770;23.400;2024-03-23T04:24:27;95663.06;;;6.07;58.32
32197;BME280;18697;42.770;23.400;2024-03-23T04:26:52;95655.22;;;6.05;58.69
32197;BME280;18697;42.770;23.400;2024-03-23T04:29:18;95658.31;;;6.07;58.81
32197;BME280;18697;42.770;23.400;2024-03-23T04:31:44;95655.91;;;6.09;58.49
32197;BME280;18697;42.770;23.400;2024-03-23T04:34:09;95650.22;;;6.00;58.47
32197;BME280;18697;42.770;23.400;2024-03-23T04:36:34;95647.91;;;5.99;58.66
32197;BME280;18697;42.770;23.400;2024-03-23T04:39:00;95654.00;;;6.06;58.17
32197;BME280;18697;42.770;23.400;2024-03-23T04:41:26;95660.53;;;6.12;57.74
32197;BME280;18697;42.770;23.400;2024-03-23T04:43:51;95664.31;;;6.18;57.37
32197;BME280;18697;42.770;23.400;2024-03-23T04:46:16;95673.63;;;6.24;58.16
32197;BME280;18697;42.770;23.400;2024-03-23T04:48:42;95672.59;;;6.18;57.91
32197;BME280;18697;42.770;23.400;2024-03-23T04:51:09;95673.22;;;6.10;58.52
32197;BME280;18697;42.770;23.400;2024-03-23T04:53:36;95683.19;;;6.20;58.22
32197;BME280;18697;42.770;23.400;2024-03-23T04:56:02;95684.56;;;6.28;58.41
32197;BME280;18697;42.770;23.400;2024-03-23T04:58:29;95682.81;;;6.34;58.07
32197;BME280;18697;42.770;23.400;2024-03-23T05:00:55;95680.69;;;6.25;57.43
32197;BME280;18697;42.770;23.400;2024-03-23T05:03:21;95673.06;;;6.01;58.89
32197;BME280;18697;42.770;23.400;2024-03-23T05:05:47;95661.19;;;5.55;59.61
32197;BME280;18697;42.770;23.400;2024-03-23T05:08:13;95676.16;;;5.54;60.70
32197;BME280;18697;42.770;23.400;2024-03-23T05:10:39;95675.91;;;5.65;60.53
32197;BME280;18697;42.770;23.400;2024-03-23T05:13:04;95674.44;;;5.60;61.06
32197;BME280;18697;42.770;23.400;2024-03-23T05:15:29;95684.44;;;5.54;61.55
32197;BME280;18697;42.770;23.400;2024-03-23T05:17:55;95671.94;;;5.33;62.34
32197;BME280;18697;42.770;23.400;2024-03-23T05:20:21;95669.44;;;5.39;62.88
32197;BME280;18697;42.770;23.400;2024-03-23T05:22:46;95671.03;;;5.04;63.50
32197;BME280;18697;42.770;23.400;2024-03-23T05:25:11;95670.03;;;5.46;62.63
32197;BME280;18697;42.770;23.400;2024-03-23T05:27:37;95667.28;;;5.30;62.81
32197;BME280;18697;42.770;23.400;2024-03-23T05:30:03;95660.72;;;5.08;64.23
32197;BME280;18697;42.770;23.400;2024-03-23T05:32:29;95660.97;;;4.97;65.04
32197;BME280;18697;42.770;23.400;2024-03-23T05:34:54;95666.66;;;5.06;64.93
32197;BME280;18697;42.770;23.400;2024-03-23T05:37:23;95660.84;;;4.84;65.95
32197;BME280;18697;42.770;23.400;2024-03-23T05:39:49;95673.53;;;4.98;66.37
32197;BME280;18697;42.770;23.400;2024-03-23T05:42:18;95669.63;;;4.95;66.79
32197;BME280;18697;42.770;23.400;2024-03-23T05:44:47;95677.28;;;4.68;67.75
32197;BME280;18697;42.770;23.400;2024-03-23T05:47:13;95673.63;;;4.55;68.98
32197;BME280;18697;42.770;23.400;2024-03-23T05:49:40;95672.50;;;4.52;69.91
32197;BME280;18697;42.770;23.400;2024-03-23T05:52:10;95676.44;;;4.71;70.56
32197;BME280;18697;42.770;23.400;2024-03-23T05:54:35;95671.63;;;4.75;70.14
32197;BME280;18697;42.770;23.400;2024-03-23T05:57:01;95673.97;;;4.77;70.01
32197;BME280;18697;42.770;23.400;2024-03-23T05:59:27;95677.34;;;4.84;69.53
32197;BME280;18697;42.770;23.400;2024-03-23T06:01:52;95663.59;;;4.84;70.06
32197;BME280;18697;42.770;23.400;2024-03-23T06:04:18;95669.00;;;5.24;68.65
32197;BME280;18697;42.770;23.400;2024-03-23T06:06:44;95667.28;;;5.30;67.87
32197;BME280;18697;42.770;23.400;2024-03-23T06:09:09;95664.53;;;5.46;67.68
32197;BME280;18697;42.770;23.400;2024-03-23T06:11:34;95658.44;;;5.71;66.48
32197;BME280;18697;42.770;23.400;2024-03-23T06:14:00;95663.59;;;5.85;66.48
32197;BME280;18697;42.770;23.400;2024-03-23T06:16:25;95656.38;;;6.20;65.59
32197;BME280;18697;42.770;23.400;2024-03-23T06:18:52;95660.09;;;6.72;63.56
32197;BME280;18697;42.770;23.400;2024-03-23T06:21:17;95665.59;;;6.59;63.12
32197;BME280;18697;42.770;23.400;2024-03-23T06:23:43;95666.38;;;6.59;63.05
32197;BME280;18697;42.770;23.400;2024-03-23T06:26:13;95661.09;;;6.78;62.41
32197;BME280;18697;42.770;23.400;2024-03-23T06:28:38;95657.63;;;7.41;60.85
32197;BME280;18697;42.770;23.400;2024-03-23T06:31:09;95651.81;;;7.86;59.67
32197;BME280;18697;42.770;23.400;2024-03-23T06:33:34;95650.47;;;8.60;58.48
32197;BME280;18697;42.770;23.400;2024-03-23T06:36:00;95645.78;;;9.00;56.18
32197;BME280;18697;42.770;23.400;2024-03-23T06:38:25;95654.06;;;9.53;54.21
32197;BME280;18697;42.770;23.400;2024-03-23T06:40:50;95654.53;;;9.61;52.73
32197;BME280;18697;42.770;23.400;2024-03-23T06:43:18;95645.81;;;9.89;51.94
32197;BME280;18697;42.770;23.400;2024-03-23T06:45:43;95640.84;;;9.75;51.88
32197;BME280;18697;42.770;23.400;2024-03-23T06:48:09;95649.53;;;9.96;51.87
32197;BME280;18697;42.770;23.400;2024-03-23T06:50:34;95641.97;;;9.87;51.86
32197;BME280;18697;42.770;23.400;2024-03-23T06:53:00;95648.63;;;10.08;50.49
32197;BME280;18697;42.770;23.400;2024-03-23T06:55:27;95652.16;;;9.99;50.86
32197;BME280;18697;42.770;23.400;2024-03-23T06:57:53;95647.38;;;10.00;50.44
32197;BME280;18697;42.770;23.400;2024-03-23T07:00:18;95643.69;;;9.44;52.39
32197;BME280;18697;42.770;23.400;2024-03-23T07:02:44;95657.09;;;10.04;51.67
32197;BME280;18697;42.770;23.400;2024-03-23T07:05:10;95645.19;;;9.85;52.16
32197;BME280;18697;42.770;23.400;2024-03-23T07:07:36;95637.75;;;9.64;51.14
32197;BME280;18697;42.770;23.400;2024-03-23T07:10:01;95642.22;;;9.21;52.67
32197;BME280;18697;42.770;23.400;2024-03-23T07:12:28;95642.47;;;9.45;52.93
32197;BME280;18697;42.770;23.400;2024-03-23T07:14:53;95627.09;;;9.53;53.08
32197;BME280;18697;42.770;23.400;2024-03-23T07:17:19;95630.69;;;9.81;52.52
32197;BME280;18697;42.770;23.400;2024-03-23T07:19:44;95634.88;;;9.95;53.21
32197;BME280;18697;42.770;23.400;2024-03-23T07:22:09;95627.25;;;9.50;54.45
32197;BME280;18697;42.770;23.400;2024-03-23T07:24:35;95638.19;;;10.58;52.74
32197;BME280;18697;42.770;23.400;2024-03-23T07:27:01;95631.06;;;10.75;50.10
32197;BME280;18697;42.770;23.400;2024-03-23T07:29:27;95628.63;;;10.68;50.14
32197;BME280;18697;42.770;23.400;2024-03-23T07:31:53;95620.53;;;11.06;49.68
32197;BME280;18697;42.770;23.400;2024-03-23T07:34:19;95624.56;;;10.96;49.40
32197;BME280;18697;42.770;23.400;2024-03-23T07:36:45;95623.16;;;11.76;48.21
32197;BME280;18697;42.770;23.400;2024-03-23T07:39:10;95623.47;;;12.26;47.68
32197;BME280;18697;42.770;23.400;2024-03-23T07:41:36;95618.06;;;12.46;47.42
32197;BME280;18697;42.770;23.400;2024-03-23T07:44:02;95622.44;;;12.76;45.88
32197;BME280;18697;42.770;23.400;2024-03-23T07:46:27;95621.38;;;12.74;45.32
32197;BME280;18697;42.770;23.400;2024-03-23T07:48:52;95622.25;;;12.95;44.88
32197;BME280;18697;42.770;23.400;2024-03-23T07:51:21;95613.59;;;12.93;45.01
32197;BME280;18697;42.770;23.400;2024-03-23T07:53:47;95613.13;;;12.94;44.76
32197;BME280;18697;42.770;23.400;2024-03-23T07:56:14;95604.28;;;13.40;45.51
32197;BME280;18697;42.770;23.400;2024-03-23T07:58:49;95615.47;;;13.75;43.54
32197;BME280;18697;42.770;23.400;2024-03-23T08:01:15;95605.94;;;14.02;43.19
32197;BME280;18697;42.770;23.400;2024-03-23T08:03:45;95600.47;;;14.13;44.09
32197;BME280;18697;42.770;23.400;2024-03-23T08:06:15;95601.13;;;14.63;42.44
32197;BME280;18697;42.770;23.400;2024-03-23T08:08:43;95611.50;;;15.09;42.20
32197;BME280;18697;42.770;23.400;2024-03-23T08:11:09;95613.63;;;15.20;40.87
32197;BME280;18697;42.770;23.400;2024-03-23T08:13:35;95611.16;;;15.27;41.71
32197;BME280;18697;42.770;23.400;2024-03-23T08:16:02;95607.34;;;15.30;41.82
32197;BME280;18697;42.770;23.400;2024-03-23T08:18:28;95598.88;;;15.51;39.84
32197;BME280;18697;42.770;23.400;2024-03-23T08:20:57;95603.91;;;15.78;39.73
32197;BME280;18697;42.770;23.400;2024-03-23T08:23:27;95605.06;;;15.97;39.33
32197;BME280;18697;42.770;23.400;2024-03-23T08:26:00;95596.50;;;16.18;40.61
32197;BME280;18697;42.770;23.400;2024-03-23T08:28:26;95601.47;;;16.45;39.02
32197;BME280;18697;42.770;23.400;2024-03-23T08:30:52;95592.84;;;16.60;39.08
32197;BME280;18697;42.770;23.400;2024-03-23T08:33:18;95590.81;;;16.60;38.59
32197;BME280;18697;42.770;23.400;2024-03-23T08:35:53;95592.16;;;16.70;38.57
32197;BME280;18697;42.770;23.400;2024-03-23T08:38:19;95587.75;;;16.58;39.16
32197;BME280;18697;42.770;23.400;2024-03-23T08:40:44;95587.16;;;16.37;39.13
32197;BME280;18697;42.770;23.400;2024-03-23T08:43:09;95589.91;;;16.86;38.82
32197;BME280;18697;42.770;23.400;2024-03-23T08:45:35;95584.06;;;17.06;38.55
32197;BME280;18697;42.770;23.400;2024-03-23T08:48:00;95575.13;;;17.13;38.37
32197;BME280;18697;42.770;23.400;2024-03-23T08:50:25;95580.25;;;17.48;37.30
32197;BME280;18697;42.770;23.400;2024-03-23T08:52:51;95583.31;;;17.50;35.66
32197;BME280;18697;42.770;23.400;2024-03-23T08:55:16;95574.00;;;16.60;37.49
32197;BME280;18697;42.770;23.400;2024-03-23T08:57:42;95568.22;;;16.16;37.71
32197;BME280;18697;42.770;23.400;2024-03-23T09:00:07;95570.75;;;16.79;37.28
32197;BME280;18697;42.770;23.400;2024-03-23T09:02:34;95552.69;;;17.02;38.94
32197;BME280;18697;42.770;23.400;2024-03-23T09:04:59;95553.97;;;17.34;39.01
32197;BME280;18697;42.770;23.400;2024-03-23T09:07:30;95550.63;;;17.25;36.42
32197;BME280;18697;42.770;23.400;2024-03-23T09:09:55;95545.56;;;17.06;36.70
32197;BME280;18697;42.770;23.400;2024-03-23T09:12:21;95550.63;;;17.36;37.32
32197;BME280;18697;42.770;23.400;2024-03-23T09:14:46;95549.63;;;17.50;35.92
32197;BME280;18697;42.770;23.400;2024-03-23T09:17:11;95546.81;;;17.33;37.51
32197;BME280;18697;42.770;23.400;2024-03-23T09:19:36;95535.28;;;16.70;37.91
32197;BME280;18697;42.770;23.400;2024-03-23T09:22:02;95526.06;;;16.58;38.28
32197;BME280;18697;42.770;23.400;2024-03-23T09:24:27;95505.50;;;17.06;38.40
32197;BME280;18697;42.770;23.400;2024-03-23T09:26:53;95505.72;;;17.47;38.73
32197;BME280;18697;42.770;23.400;2024-03-23T09:29:18;95498.56;;;17.52;38.30
32197;BME280;18697;42.770;23.400;2024-03-23T09:31:44;95517.19;;;17.77;36.03
32197;BME280;18697;42.770;23.400;2024-03-23T09:34:10;95510.31;;;17.33;36.51
32197;BME280;18697;42.770;23.400;2024-03-23T09:36:35;95499.50;;;17.88;37.09
32197;BME280;18697;42.770;23.400;2024-03-23T09:39:00;95494.56;;;18.16;36.97
32197;BME280;18697;42.770;23.400;2024-03-23T09:41:26;95501.38;;;18.32;37.13
32197;BME280;18697;42.770;23.400;2024-03-23T09:43:54;95481.38;;;18.47;37.25
32197;BME280;18697;42.770;23.400;2024-03-23T09:46:20;95490.44;;;18.23;35.53
32197;BME280;18697;42.770;23.400;2024-03-23T09:48:46;95489.72;;;18.63;35.11
32197;BME280;18697;42.770;23.400;2024-03-23T09:51:12;95491.25;;;19.00;36.70
32197;BME280;18697;42.770;23.400;2024-03-23T09:53:37;95479.44;;;19.07;34.74
32197;BME280;18697;42.770;23.400;2024-03-23T09:56:04;95483.47;;;19.42;34.89
32197;BME280;18697;42.770;23.400;2024-03-23T09:58:29;95461.22;;;19.68;35.13
32197;BME280;18697;42.770;23.400;2024-03-23T10:00:54;95466.53;;;19.72;34.44
32197;BME280;18697;42.770;23.400;2024-03-23T10:03:20;95468.88;;;19.92;35.21
32197;BME280;18697;42.770;23.400;2024-03-23T10:05:45;95469.66;;;19.92;33.75
32197;BME280;18697;42.770;23.400;2024-03-23T10:10:39;95467.72;;;19.57;33.37
32197;BME280;18697;42.770;23.400;2024-03-23T10:13:05;95456.00;;;19.48;34.52
32197;BME280;18697;42.770;23.400;2024-03-23T10:15:34;95453.56;;;19.63;34.11
32197;BME280;18697;42.770;23.400;2024-03-23T10:18:26;95451.94;;;19.73;33.87
32197;BME280;18697;42.770;23.400;2024-03-23T10:21:06;95453.94;;;19.48;32.79
32197;BME280;18697;42.770;23.400;2024-03-23T10:23:33;95452.53;;;19.66;33.76
32197;BME280;18697;42.770;23.400;2024-03-23T10:31:32;95425.56;;;20.32;33.25
32197;BME280;18697;42.770;23.400;2024-03-23T10:33:57;95426.88;;;20.50;32.37
32197;BME280;18697;42.770;23.400;2024-03-23T10:36:24;95430.81;;;20.60;32.58
32197;BME280;18697;42.770;23.400;2024-03-23T10:38:51;95431.34;;;20.02;30.66
32197;BME280;18697;42.770;23.400;2024-03-23T10:41:17;95431.09;;;19.03;30.32
32197;BME280;18697;42.770;23.400;2024-03-23T10:43:45;95417.34;;;19.48;33.76
32197;BME280;18697;42.770;23.400;2024-03-23T10:46:11;95433.91;;;19.82;31.57
32197;BME280;18697;42.770;23.400;2024-03-23T10:48:37;95405.34;;;20.10;31.54
32197;BME280;18697;42.770;23.400;2024-03-23T10:51:03;95402.22;;;20.13;32.15
32197;BME280;18697;42.770;23.400;2024-03-23T10:53:29;95395.38;;;20.27;29.93
32197;BME280;18697;42.770;23.400;2024-03-23T10:55:58;95403.91;;;20.22;30.10
32197;BME280;18697;42.770;23.400;2024-03-23T10:58:27;95392.41;;;20.39;28.95
32197;BME280;18697;42.770;23.400;2024-03-23T11:00:55;95402.00;;;20.30;29.03
32197;BME280;18697;42.770;23.400;2024-03-23T11:03:37;95402.00;;;20.67;26.50
32197;BME280;18697;42.770;23.400;2024-03-23T11:06:07;95405.13;;;20.64;26.04
32197;BME280;18697;42.770;23.400;2024-03-23T11:08:37;95409.63;;;20.54;26.19
32197;BME280;18697;42.770;23.400;2024-03-23T11:11:21;95393.69;;;20.38;27.87
32197;BME280;18697;42.770;23.400;2024-03-23T11:13:49;95389.97;;;20.48;27.64
32197;BME280;18697;42.770;23.400;2024-03-23T11:16:25;95388.72;;;20.62;26.67
32197;BME280;18697;42.770;23.400;2024-03-23T11:19:37;95372.84;;;20.91;27.33
32197;BME280;18697;42.770;23.400;2024-03-23T11:22:03;95368.94;;;20.94;28.54
32197;BME280;18697;42.770;23.400;2024-03-23T11:24:30;95359.56;;;20.73;28.00
32197;BME280;18697;42.770;23.400;2024-03-23T11:26:55;95358.22;;;20.61;27.41
32197;BME280;18697;42.770;23.400;2024-03-23T11:29:20;95337.56;;;20.98;30.46
32197;BME280;18697;42.770;23.400;2024-03-23T11:31:55;95340.09;;;21.15;28.66
32197;BME280;18697;42.770;23.400;2024-03-23T11:34:22;95324.81;;;21.37;29.22
32197;BME280;18697;42.770;23.400;2024-03-23T11:36:48;95338.59;;;21.67;27.37
32197;BME280;18697;42.770;23.400;2024-03-23T11:39:18;95331.94;;;21.77;28.43
32197;BME280;18697;42.770;23.400;2024-03-23T11:41:47;95321.50;;;21.85;27.86
32197;BME280;18697;42.770;23.400;2024-03-23T11:44:19;95314.97;;;22.04;28.17
32197;BME280;18697;42.770;23.400;2024-03-23T11:46:48;95316.03;;;22.14;28.03
32197;BME280;18697;42.770;23.400;2024-03-23T11:51:47;95297.81;;;22.43;27.00
32197;BME280;18697;42.770;23.400;2024-03-23T11:54:13;95295.34;;;22.19;26.27
32197;BME280;18697;42.770;23.400;2024-03-23T11:56:38;95290.56;;;22.35;27.10
32197;BME280;18697;42.770;23.400;2024-03-23T11:59:04;95290.31;;;22.46;26.79
32197;BME280;18697;42.770;23.400;2024-03-23T12:01:29;95299.13;;;22.63;24.80
32197;BME280;18697;42.770;23.400;2024-03-23T12:03:54;95303.06;;;22.39;24.27
32197;BME280;18697;42.770;23.400;2024-03-23T12:06:20;95301.41;;;22.44;24.14
32197;BME280;18697;42.770;23.400;2024-03-23T12:08:45;95280.63;;;22.41;25.79
32197;BME280;18697;42.770;23.400;2024-03-23T12:11:12;95278.72;;;22.57;26.68
32197;BME280;18697;42.770;23.400;2024-03-23T12:13:39;95278.06;;;21.62;25.21
32197;BME280;18697;42.770;23.400;2024-03-23T12:16:11;95277.53;;;22.11;24.65
32197;BME280;18697;42.770;23.400;2024-03-23T12:18:37;95270.00;;;22.13;24.62
32197;BME280;18697;42.770;23.400;2024-03-23T12:21:04;95262.69;;;22.39;25.84
32197;BME280;18697;42.770;23.400;2024-03-23T12:23:29;95259.66;;;22.16;25.03
32197;BME280;18697;42.770;23.400;2024-03-23T12:25:54;95250.69;;;22.04;26.16
32197;BME280;18697;42.770;23.400;2024-03-23T12:28:20;95248.47;;;22.31;26.10
32197;BME280;18697;42.770;23.400;2024-03-23T12:30:45;95235.09;;;22.52;26.56
32197;BME280;18697;42.770;23.400;2024-03-23T12:33:10;95255.03;;;21.92;24.78
32197;BME280;18697;42.770;23.400;2024-03-23T12:35:36;95227.16;;;22.30;25.90
32197;BME280;18697;42.770;23.400;2024-03-23T12:38:02;95230.53;;;22.28;23.80
32197;BME280;18697;42.770;23.400;2024-03-23T12:40:28;95232.16;;;21.69;25.33
32197;BME280;18697;42.770;23.400;2024-03-23T12:42:54;95232.69;;;21.34;24.99
32197;BME280;18697;42.770;23.400;2024-03-23T12:45:19;95217.72;;;21.25;26.39
32197;BME280;18697;42.770;23.400;2024-03-23T12:47:44;95219.34;;;21.34;25.59
32197;BME280;18697;42.770;23.400;2024-03-23T12:50:11;95216.31;;;21.66;25.12
32197;BME280;18697;42.770;23.400;2024-03-23T12:52:37;95196.38;;;21.51;25.12
32197;BME280;18697;42.770;23.400;2024-03-23T12:55:02;95199.78;;;20.12;26.49
32197;BME280;18697;42.770;23.400;2024-03-23T12:57:30;95194.81;;;20.50;25.38
32197;BME280;18697;42.770;23.400;2024-03-23T12:59:56;95193.28;;;20.62;26.35
32197;BME280;18697;42.770;23.400;2024-03-23T13:02:22;95180.81;;;20.71;26.53
32197;BME280;18697;42.770;23.400;2024-03-23T13:04:52;95176.16;;;20.73;27.70
32197;BME280;18697;42.770;23.400;2024-03-23T13:07:18;95177.59;;;20.34;26.08
32197;BME280;18697;42.770;23.400;2024-03-23T13:09:44;95175.50;;;20.22;26.29
32197;BME280;18697;42.770;23.400;2024-03-23T13:12:10;95177.00;;;20.10;25.81
32197;BME280;18697;42.770;23.400;2024-03-23T13:14:40;95162.53;;;20.32;27.22
32197;BME280;18697;42.770;23.400;2024-03-23T13:17:06;95160.97;;;20.76;26.36
32197;BME280;18697;42.770;23.400;2024-03-23T13:19:33;95157.16;;;20.60;25.40
32197;BME280;18697;42.770;23.400;2024-03-23T13:21:59;95170.19;;;20.63;24.46
32197;BME280;18697;42.770;23.400;2024-03-23T13:24:26;95165.06;;;20.49;26.56
32197;BME280;18697;42.770;23.400;2024-03-23T13:26:52;95158.44;;;20.46;25.51
32197;BME280;18697;42.770;23.400;2024-03-23T13:29:18;95147.16;;;20.86;25.11
32197;BME280;18697;42.770;23.400;2024-03-23T13:31:45;95147.34;;;21.27;25.46
32197;BME280;18697;42.770;23.400;2024-03-23T13:34:10;95146.75;;;21.63;26.26
32197;BME280;18697;42.770;23.400;2024-03-23T13:36:37;95143.88;;;21.76;25.37
32197;BME280;18697;42.770;23.400;2024-03-23T13:39:03;95141.25;;;21.78;24.53
32197;BME280;18697;42.770;23.400;2024-03-23T13:44:05;95126.69;;;22.08;24.41
32197;BME280;18697;42.770;23.400;2024-03-23T13:46:31;95130.72;;;22.00;24.20
32197;BME280;18697;42.770;23.400;2024-03-23T13:48:57;95114.72;;;21.81;23.13
32197;BME280;18697;42.770;23.400;2024-03-23T13:53:53;95140.34;;;21.62;22.64
32197;BME280;18697;42.770;23.400;2024-03-23T13:56:19;95135.03;;;21.59;22.47
32197;BME280;18697;42.770;23.400;2024-03-23T13:58:44;95140.56;;;20.70;21.64